Granite Falls, NC

7:29 PM EDT on October 24, 2014 (GMT -0400)
Hickory Regional | Change Station
CLOSE
Current Station
Airport
Location: Hickory,
Elevation: 1188 ft
Nearby Weather Stations

Elev 1188 ft 35.74 °N, 81.38 °W | Updated 36 minutes ago

Partly Cloudy
Partly Cloudy
57 °F
Feels Like 57 °F
N
0
Wind Variable Wind from North

Today
High -- | Low -- °F
--% Chance of Precip.
Yesterday
High -- | Low -- °F
Precip. -- in
7:40 AM 6:38 PM
New Moon, 1% visible
Pressure 29.96 in
Visibility 10.0 miles
Clouds Clear
Dew Point 45 °F
Humidity 64%
Rainfall 0.00 in
Snow Depth Not available.
UV 0 out of 12
Pollen 2.70 out of 12
Ozone Good
PM2.5 Good
Flu Activity Sporadic
METAR KHKY 242253Z AUTO 00000KT 10SM CLR 14/07 A2999 RMK AO2 SLP145 T01390072

More Conditions Fewer Conditions

Pressure 29.96 in
Visibility 10.0 miles
Clouds Clear
Dew Point 45 °F
Humidity 64%
Rainfall 0.00 in
Snow Depth Not available.
UV 0 out of 12
Pollen 2.70 out of 12
Ozone Good
PM2.5 Good
Flu Activity Sporadic
METAR KHKY 242253Z AUTO 00000KT 10SM CLR 14/07 A2999 RMK AO2 SLP145 T01390072

More Conditions Fewer Conditions

10-Day Weather Forecast

Almanac

Astronomy

Oct. 24, 2014 Rise Set
Actual Time 7:40 AM EDT 6:38 PM EDT
Civil Twilight 7:14 AM EDT 7:05 PM EDT
Nautical Twilight 6:44 AM EDT 7:34 PM EDT
Astronomical Twilight 6:14 AM EDT 8:04 PM EDT
Moon 8:17 AM EDT 7:19 PM EDT
Length of Visible Light 11h 50m
Length of Day
10h 58m
Tomorrow will be 2m 4s shorter.
New Moon, 1% of the Moon is Illuminated
Today
New Moon
Oct 30
First Quarter
Nov 6
Full
Nov 14
Last Quarter
Nov 22
New

Today's Extremes

State Highs State Lows

Community

WunderPhotos

Upload Photos

1,764,710 photos uploaded!

Nearby

Air Quality

  Air Quality AQ Index Pollutant
Yesterday Good
OZONE
Yesterday Good
PM2.5
Current Good
PM2.5
Current Good
OZONE
Friday Good
PM2.5
Friday Good
OZONE
Saturday Good
PM2.5
Saturday Good
OZONE
Sunday Good
PM2.5
Sunday Good
OZONE
Monday Good
PM2.5
Monday Good
OZONE

Snow Depth

Station Depth Elevation
No new snow has been reported.

Earthquake Activity

City Distance Mag. Time & Date
No recent earthquake activity has been reported nearby.
Minimum magnitude displayed is 2.5.

Coastal Water Temperatures

Place Temperature
No Stations Reporting

Nearby Weather Stations